sensor_id;sensor_type;location;lat;lon;timestamp;temperature;humidity
26342;DHT22;14054;50.108;8.640;2023-04-01T00:01:53;10.80;99.90
26342;DHT22;14054;50.108;8.640;2023-04-01T00:04:19;10.80;99.90
26342;DHT22;14054;50.108;8.640;2023-04-01T00:06:46;10.70;99.90
26342;DHT22;14054;50.108;8.640;2023-04-01T00:09:12;10.80;99.90
26342;DHT22;14054;50.108;8.640;2023-04-01T00:11:38;10.90;99.90
26342;DHT22;14054;50.108;8.640;2023-04-01T00:14:04;10.80;99.90
26342;DHT22;14054;50.108;8.640;2023-04-01T00:16:30;10.80;99.90
26342;DHT22;14054;50.108;8.640;2023-04-01T00:18:55;10.80;99.90
26342;DHT22;14054;50.108;8.640;2023-04-01T00:21:21;10.80;99.90
26342;DHT22;14054;50.108;8.640;2023-04-01T00:23:48;10.80;99.90
26342;DHT22;14054;50.108;8.640;2023-04-01T00:26:13;10.80;99.90
26342;DHT22;14054;50.108;8.640;2023-04-01T00:28:40;10.70;99.90
26342;DHT22;14054;50.108;8.640;2023-04-01T00:31:06;10.80;99.90
26342;DHT22;14054;50.108;8.640;2023-04-01T00:33:32;10.70;99.90
26342;DHT22;14054;50.108;8.640;2023-04-01T00:36:05;10.80;99.90
26342;DHT22;14054;50.108;8.640;2023-04-01T00:38:30;10.80;99.90
26342;DHT22;14054;50.108;8.640;2023-04-01T00:40:56;10.80;99.90
26342;DHT22;14054;50.108;8.640;2023-04-01T00:43:22;10.60;99.90
26342;DHT22;14054;50.108;8.640;2023-04-01T00:45:49;10.70;99.90
26342;DHT22;14054;50.108;8.640;2023-04-01T00:48:16;10.70;99.90
26342;DHT22;14054;50.108;8.640;2023-04-01T00:50:44;10.70;99.90
26342;DHT22;14054;50.108;8.640;2023-04-01T00:53:11;10.70;99.90
26342;DHT22;14054;50.108;8.640;2023-04-01T00:55:37;10.70;99.90
26342;DHT22;14054;50.108;8.640;2023-04-01T00:58:05;10.60;99.90
26342;DHT22;14054;50.108;8.640;2023-04-01T01:00:32;10.70;99.90
26342;DHT22;14054;50.108;8.640;2023-04-01T01:02:58;10.70;99.90
26342;DHT22;14054;50.108;8.640;2023-04-01T01:05:31;10.60;99.90
26342;DHT22;14054;50.108;8.640;2023-04-01T01:10:43;10.70;99.90
26342;DHT22;14054;50.108;8.640;2023-04-01T01:13:17;10.70;99.90
26342;DHT22;14054;50.108;8.640;2023-04-01T01:15:49;10.70;99.90
26342;DHT22;14054;50.108;8.640;2023-04-01T01:18:27;10.70;99.90
26342;DHT22;14054;50.108;8.640;2023-04-01T01:21:08;10.70;99.90
26342;DHT22;14054;50.108;8.640;2023-04-01T01:33:55;10.70;99.90
26342;DHT22;14054;50.108;8.640;2023-04-01T01:36:25;10.60;99.90
26342;DHT22;14054;50.108;8.640;2023-04-01T01:38:52;10.60;99.90
26342;DHT22;14054;50.108;8.640;2023-04-01T01:41:18;10.60;99.90
26342;DHT22;14054;50.108;8.640;2023-04-01T01:43:46;10.60;99.90
26342;DHT22;14054;50.108;8.640;2023-04-01T01:46:14;10.60;99.90
26342;DHT22;14054;50.108;8.640;2023-04-01T01:48:41;10.60;99.90
26342;DHT22;14054;50.108;8.640;2023-04-01T01:51:07;10.50;99.90
26342;DHT22;14054;50.108;8.640;2023-04-01T01:53:33;10.50;99.90
26342;DHT22;14054;50.108;8.640;2023-04-01T01:55:58;10.50;99.90
26342;DHT22;14054;50.108;8.640;2023-04-01T01:58:28;10.50;99.90
26342;DHT22;14054;50.108;8.640;2023-04-01T02:01:04;10.50;99.90
26342;DHT22;14054;50.108;8.640;2023-04-01T02:03:34;10.50;99.90
26342;DHT22;14054;50.108;8.640;2023-04-01T02:06:01;10.50;99.90
26342;DHT22;14054;50.108;8.640;2023-04-01T02:08:30;10.50;99.90
26342;DHT22;14054;50.108;8.640;2023-04-01T02:11:00;10.70;99.90
26342;DHT22;14054;50.108;8.640;2023-04-01T02:13:30;10.50;99.90
26342;DHT22;14054;50.108;8.640;2023-04-01T02:15:56;10.40;99.90
26342;DHT22;14054;50.108;8.640;2023-04-01T02:18:25;10.50;99.90
26342;DHT22;14054;50.108;8.640;2023-04-01T02:20:50;10.50;99.90
26342;DHT22;14054;50.108;8.640;2023-04-01T02:23:16;10.50;99.90
26342;DHT22;14054;50.108;8.640;2023-04-01T02:25:42;10.50;99.90
26342;DHT22;14054;50.108;8.640;2023-04-01T02:28:08;10.50;99.90
26342;DHT22;14054;50.108;8.640;2023-04-01T02:30:35;10.50;99.90
26342;DHT22;14054;50.108;8.640;2023-04-01T02:33:02;10.60;99.90
26342;DHT22;14054;50.108;8.640;2023-04-01T02:35:28;10.50;99.90
26342;DHT22;14054;50.108;8.640;2023-04-01T02:37:54;10.70;99.90
26342;DHT22;14054;50.108;8.640;2023-04-01T02:40:20;10.60;99.90
26342;DHT22;14054;50.108;8.640;2023-04-01T02:42:45;10.60;99.90
26342;DHT22;14054;50.108;8.640;2023-04-01T02:45:11;10.50;99.90
26342;DHT22;14054;50.108;8.640;2023-04-01T02:47:37;10.60;99.90
26342;DHT22;14054;50.108;8.640;2023-04-01T02:50:02;10.60;99.90
26342;DHT22;14054;50.108;8.640;2023-04-01T02:52:28;10.70;99.90
26342;DHT22;14054;50.108;8.640;2023-04-01T02:54:54;10.50;99.90
26342;DHT22;14054;50.108;8.640;2023-04-01T02:57:20;10.50;99.90
26342;DHT22;14054;50.108;8.640;2023-04-01T02:59:46;10.60;99.90
26342;DHT22;14054;50.108;8.640;2023-04-01T03:02:11;10.50;99.90
26342;DHT22;14054;50.108;8.640;2023-04-01T03:04:37;10.50;99.90
26342;DHT22;14054;50.108;8.640;2023-04-01T03:07:02;10.50;99.90
26342;DHT22;14054;50.108;8.640;2023-04-01T03:09:28;10.50;99.90
26342;DHT22;14054;50.108;8.640;2023-04-01T03:11:54;10.50;99.90
26342;DHT22;14054;50.108;8.640;2023-04-01T03:14:19;10.40;99.90
26342;DHT22;14054;50.108;8.640;2023-04-01T03:16:45;10.50;99.90
26342;DHT22;14054;50.108;8.640;2023-04-01T03:19:10;10.40;99.90
26342;DHT22;14054;50.108;8.640;2023-04-01T03:21:35;10.40;99.90
26342;DHT22;14054;50.108;8.640;2023-04-01T03:24:01;10.40;99.90
26342;DHT22;14054;50.108;8.640;2023-04-01T03:26:26;10.40;99.90
26342;DHT22;14054;50.108;8.640;2023-04-01T03:28:52;10.50;99.90
26342;DHT22;14054;50.108;8.640;2023-04-01T03:31:18;10.40;99.90
26342;DHT22;14054;50.108;8.640;2023-04-01T03:33:43;10.40;99.90
26342;DHT22;14054;50.108;8.640;2023-04-01T03:36:09;10.30;99.90
26342;DHT22;14054;50.108;8.640;2023-04-01T03:38:36;10.40;99.90
26342;DHT22;14054;50.108;8.640;2023-04-01T03:41:02;10.20;99.90
26342;DHT22;14054;50.108;8.640;2023-04-01T03:43:27;10.30;99.90
26342;DHT22;14054;50.108;8.640;2023-04-01T03:45:53;10.20;99.90
26342;DHT22;14054;50.108;8.640;2023-04-01T03:48:19;10.30;99.90
26342;DHT22;14054;50.108;8.640;2023-04-01T03:50:46;10.20;99.90
26342;DHT22;14054;50.108;8.640;2023-04-01T03:53:12;10.40;99.90
26342;DHT22;14054;50.108;8.640;2023-04-01T03:55:38;10.20;99.90
26342;DHT22;14054;50.108;8.640;2023-04-01T03:58:04;10.20;99.90
26342;DHT22;14054;50.108;8.640;2023-04-01T04:00:30;10.30;99.90
26342;DHT22;14054;50.108;8.640;2023-04-01T04:02:55;10.30;99.90
26342;DHT22;14054;50.108;8.640;2023-04-01T04:05:24;10.20;99.90
26342;DHT22;14054;50.108;8.640;2023-04-01T04:07:50;10.30;99.90
26342;DHT22;14054;50.108;8.640;2023-04-01T04:10:16;10.20;99.90
26342;DHT22;14054;50.108;8.640;2023-04-01T04:12:42;10.30;99.90
26342;DHT22;14054;50.108;8.640;2023-04-01T04:15:08;10.30;99.90
26342;DHT22;14054;50.108;8.640;2023-04-01T04:17:33;10.30;99.90
26342;DHT22;14054;50.108;8.640;2023-04-01T04:19:59;10.40;99.90
26342;DHT22;14054;50.108;8.640;2023-04-01T04:22:24;10.20;99.90
26342;DHT22;14054;50.108;8.640;2023-04-01T04:24:50;10.40;99.90
26342;DHT22;14054;50.108;8.640;2023-04-01T04:27:15;10.40;99.90
26342;DHT22;14054;50.108;8.640;2023-04-01T04:29:40;10.60;99.90
26342;DHT22;14054;50.108;8.640;2023-04-01T04:32:06;10.30;99.90
26342;DHT22;14054;50.108;8.640;2023-04-01T04:34:32;10.30;99.90
26342;DHT22;14054;50.108;8.640;2023-04-01T04:36:57;10.30;99.90
26342;DHT22;14054;50.108;8.640;2023-04-01T04:39:23;10.40;99.90
26342;DHT22;14054;50.108;8.640;2023-04-01T04:41:48;10.20;99.90
26342;DHT22;14054;50.108;8.640;2023-04-01T04:44:14;10.40;99.90
26342;DHT22;14054;50.108;8.640;2023-04-01T04:46:39;10.20;99.90
26342;DHT22;14054;50.108;8.640;2023-04-01T04:49:05;10.40;99.90
26342;DHT22;14054;50.108;8.640;2023-04-01T04:51:31;10.40;99.90
26342;DHT22;14054;50.108;8.640;2023-04-01T04:53:59;10.40;99.90
26342;DHT22;14054;50.108;8.640;2023-04-01T04:56:25;10.40;99.90
26342;DHT22;14054;50.108;8.640;2023-04-01T04:58:51;10.40;99.90
26342;DHT22;14054;50.108;8.640;2023-04-01T05:01:17;10.30;99.90
26342;DHT22;14054;50.108;8.640;2023-04-01T05:03:43;10.30;99.90
26342;DHT22;14054;50.108;8.640;2023-04-01T05:06:09;10.30;99.90
26342;DHT22;14054;50.108;8.640;2023-04-01T05:08:35;10.20;99.90
26342;DHT22;14054;50.108;8.640;2023-04-01T05:11:01;10.60;99.90
26342;DHT22;14054;50.108;8.640;2023-04-01T05:13:27;10.30;99.90
26342;DHT22;14054;50.108;8.640;2023-04-01T05:15:52;10.30;99.90
26342;DHT22;14054;50.108;8.640;2023-04-01T05:18:17;10.40;99.90
26342;DHT22;14054;50.108;8.640;2023-04-01T05:20:50;10.60;99.90
26342;DHT22;14054;50.108;8.640;2023-04-01T05:23:16;10.40;99.90
26342;DHT22;14054;50.108;8.640;2023-04-01T05:25:41;10.40;99.90
26342;DHT22;14054;50.108;8.640;2023-04-01T05:28:07;10.60;99.90
26342;DHT22;14054;50.108;8.640;2023-04-01T05:30:32;10.40;99.90
26342;DHT22;14054;50.108;8.640;2023-04-01T05:32:58;10.40;99.90
26342;DHT22;14054;50.108;8.640;2023-04-01T05:35:23;10.20;99.90
26342;DHT22;14054;50.108;8.640;2023-04-01T05:37:49;10.30;99.90
26342;DHT22;14054;50.108;8.640;2023-04-01T05:40:14;10.30;99.90
26342;DHT22;14054;50.108;8.640;2023-04-01T05:42:40;10.30;99.90
26342;DHT22;14054;50.108;8.640;2023-04-01T05:45:05;10.20;99.90
26342;DHT22;14054;50.108;8.640;2023-04-01T05:47:31;10.30;99.90
26342;DHT22;14054;50.108;8.640;2023-04-01T05:49:56;10.50;99.90
26342;DHT22;14054;50.108;8.640;2023-04-01T05:52:22;10.00;99.90
26342;DHT22;14054;50.108;8.640;2023-04-01T05:54:47;10.10;99.90
26342;DHT22;14054;50.108;8.640;2023-04-01T05:57:13;9.90;99.90
26342;DHT22;14054;50.108;8.640;2023-04-01T05:59:38;10.10;99.90
26342;DHT22;14054;50.108;8.640;2023-04-01T06:02:04;10.10;99.90
26342;DHT22;14054;50.108;8.640;2023-04-01T06:04:32;9.90;99.90
26342;DHT22;14054;50.108;8.640;2023-04-01T06:06:59;10.00;99.90
26342;DHT22;14054;50.108;8.640;2023-04-01T06:09:29;10.10;99.90
26342;DHT22;14054;50.108;8.640;2023-04-01T06:14:38;9.90;99.90
26342;DHT22;14054;50.108;8.640;2023-04-01T06:24:59;9.90;99.90
26342;DHT22;14054;50.108;8.640;2023-04-01T06:27:46;9.90;99.90
26342;DHT22;14054;50.108;8.640;2023-04-01T06:30:23;9.70;99.90
26342;DHT22;14054;50.108;8.640;2023-04-01T06:35:22;10.00;99.90
26342;DHT22;14054;50.108;8.640;2023-04-01T06:38:02;10.00;99.90
26342;DHT22;14054;50.108;8.640;2023-04-01T06:41:13;10.00;99.90
26342;DHT22;14054;50.108;8.640;2023-04-01T06:43:28;10.00;99.90
26342;DHT22;14054;50.108;8.640;2023-04-01T06:46:08;10.10;99.90
26342;DHT22;14054;50.108;8.640;2023-04-01T06:48:40;10.10;99.90
26342;DHT22;14054;50.108;8.640;2023-04-01T06:51:16;10.10;99.90
26342;DHT22;14054;50.108;8.640;2023-04-01T06:53:53;10.10;99.90
26342;DHT22;14054;50.108;8.640;2023-04-01T06:56:20;10.10;99.90
26342;DHT22;14054;50.108;8.640;2023-04-01T07:01:42;10.10;99.90
26342;DHT22;14054;50.108;8.640;2023-04-01T07:04:11;10.10;99.90
26342;DHT22;14054;50.108;8.640;2023-04-01T07:06:39;10.10;99.90
26342;DHT22;14054;50.108;8.640;2023-04-01T07:09:12;10.10;99.90
26342;DHT22;14054;50.108;8.640;2023-04-01T07:11:38;10.20;99.90
26342;DHT22;14054;50.108;8.640;2023-04-01T07:16:54;10.00;99.90
26342;DHT22;14054;50.108;8.640;2023-04-01T07:19:24;10.00;99.90
26342;DHT22;14054;50.108;8.640;2023-04-01T07:21:51;10.00;99.90
26342;DHT22;14054;50.108;8.640;2023-04-01T07:24:22;10.10;99.90
26342;DHT22;14054;50.108;8.640;2023-04-01T07:26:49;10.10;99.90
26342;DHT22;14054;50.108;8.640;2023-04-01T07:29:17;10.10;99.90
26342;DHT22;14054;50.108;8.640;2023-04-01T07:31:56;10.10;99.90
26342;DHT22;14054;50.108;8.640;2023-04-01T07:36:54;10.30;99.90
26342;DHT22;14054;50.108;8.640;2023-04-01T07:39:29;10.20;99.90
26342;DHT22;14054;50.108;8.640;2023-04-01T07:42:04;10.30;99.90
26342;DHT22;14054;50.108;8.640;2023-04-01T07:44:49;10.10;99.90
26342;DHT22;14054;50.108;8.640;2023-04-01T07:52:49;10.40;99.90
26342;DHT22;14054;50.108;8.640;2023-04-01T07:55:28;10.50;99.90
26342;DHT22;14054;50.108;8.640;2023-04-01T07:58:10;10.50;99.90
26342;DHT22;14054;50.108;8.640;2023-04-01T08:05:35;10.40;99.90
26342;DHT22;14054;50.108;8.640;2023-04-01T08:10:36;10.50;99.90
26342;DHT22;14054;50.108;8.640;2023-04-01T08:15:33;10.60;99.90
26342;DHT22;14054;50.108;8.640;2023-04-01T08:20:47;10.70;99.90
26342;DHT22;14054;50.108;8.640;2023-04-01T08:25:51;10.90;99.90
26342;DHT22;14054;50.108;8.640;2023-04-01T08:28:23;10.80;99.90
26342;DHT22;14054;50.108;8.640;2023-04-01T08:30:52;10.80;99.90
26342;DHT22;14054;50.108;8.640;2023-04-01T08:33:23;11.00;99.90
26342;DHT22;14054;50.108;8.640;2023-04-01T08:35:54;10.70;99.90
26342;DHT22;14054;50.108;8.640;2023-04-01T08:38:27;10.80;99.90
26342;DHT22;14054;50.108;8.640;2023-04-01T08:40:58;10.80;99.90
26342;DHT22;14054;50.108;8.640;2023-04-01T08:43:40;10.90;99.90
26342;DHT22;14054;50.108;8.640;2023-04-01T08:56:12;10.90;99.90
26342;DHT22;14054;50.108;8.640;2023-04-01T08:58:52;10.90;99.90
26342;DHT22;14054;50.108;8.640;2023-04-01T09:01:35;11.20;99.90
26342;DHT22;14054;50.108;8.640;2023-04-01T09:06:41;11.10;99.90
26342;DHT22;14054;50.108;8.640;2023-04-01T09:09:20;11.20;99.90
26342;DHT22;14054;50.108;8.640;2023-04-01T09:12:10;11.10;99.90
26342;DHT22;14054;50.108;8.640;2023-04-01T09:17:29;10.90;99.90
26342;DHT22;14054;50.108;8.640;2023-04-01T09:22:50;11.00;99.90
26342;DHT22;14054;50.108;8.640;2023-04-01T09:28:01;11.20;99.90
26342;DHT22;14054;50.108;8.640;2023-04-01T09:33:12;11.20;99.90
26342;DHT22;14054;50.108;8.640;2023-04-01T09:38:30;11.20;99.90
26342;DHT22;14054;50.108;8.640;2023-04-01T09:41:05;11.30;99.90
26342;DHT22;14054;50.108;8.640;2023-04-01T09:46:07;11.50;99.90
26342;DHT22;14054;50.108;8.640;2023-04-01T09:51:31;11.50;99.90
26342;DHT22;14054;50.108;8.640;2023-04-01T09:59:24;11.50;99.90
26342;DHT22;14054;50.108;8.640;2023-04-01T10:02:04;11.50;99.90
26342;DHT22;14054;50.108;8.640;2023-04-01T10:07:27;11.50;99.90
26342;DHT22;14054;50.108;8.640;2023-04-01T10:10:05;11.60;99.90
26342;DHT22;14054;50.108;8.640;2023-04-01T10:15:19;11.50;99.90
26342;DHT22;14054;50.108;8.640;2023-04-01T10:18:03;11.60;99.90
26342;DHT22;14054;50.108;8.640;2023-04-01T10:20:55;11.70;99.90
26342;DHT22;14054;50.108;8.640;2023-04-01T10:23:43;11.80;99.90
26342;DHT22;14054;50.108;8.640;2023-04-01T10:28:44;11.80;99.90
26342;DHT22;14054;50.108;8.640;2023-04-01T10:36:57;12.00;99.90
26342;DHT22;14054;50.108;8.640;2023-04-01T10:39:30;11.90;99.90
26342;DHT22;14054;50.108;8.640;2023-04-01T10:49:43;12.00;99.90
26342;DHT22;14054;50.108;8.640;2023-04-01T10:54:47;12.00;99.90
26342;DHT22;14054;50.108;8.640;2023-04-01T10:57:32;12.00;99.90
26342;DHT22;14054;50.108;8.640;2023-04-01T11:00:21;12.10;99.90
26342;DHT22;14054;50.108;8.640;2023-04-01T11:05:54;12.00;99.90
26342;DHT22;14054;50.108;8.640;2023-04-01T11:08:46;12.00;99.90
26342;DHT22;14054;50.108;8.640;2023-04-01T11:24:13;12.10;99.90
26342;DHT22;14054;50.108;8.640;2023-04-01T11:31:43;12.20;99.90
26342;DHT22;14054;50.108;8.640;2023-04-01T11:34:22;12.20;99.90
26342;DHT22;14054;50.108;8.640;2023-04-01T11:44:36;12.30;99.90
26342;DHT22;14054;50.108;8.640;2023-04-01T11:47:10;12.50;99.90
26342;DHT22;14054;50.108;8.640;2023-04-01T11:52:09;12.30;99.90
26342;DHT22;14054;50.108;8.640;2023-04-01T12:00:13;12.10;99.90
26342;DHT22;14054;50.108;8.640;2023-04-01T12:02:52;12.10;99.90
26342;DHT22;14054;50.108;8.640;2023-04-01T12:07:57;12.30;99.90
26342;DHT22;14054;50.108;8.640;2023-04-01T12:10:28;12.30;99.90
26342;DHT22;14054;50.108;8.640;2023-04-01T12:13:14;12.20;99.90
26342;DHT22;14054;50.108;8.640;2023-04-01T12:20:52;12.30;99.90
26342;DHT22;14054;50.108;8.640;2023-04-01T12:23:41;12.30;99.90
26342;DHT22;14054;50.108;8.640;2023-04-01T12:29:16;12.40;99.90
26342;DHT22;14054;50.108;8.640;2023-04-01T12:31:47;12.30;99.90
26342;DHT22;14054;50.108;8.640;2023-04-01T12:34:28;12.20;99.90
26342;DHT22;14054;50.108;8.640;2023-04-01T12:37:06;12.10;99.90
26342;DHT22;14054;50.108;8.640;2023-04-01T12:52:20;11.70;99.90
26342;DHT22;14054;50.108;8.640;2023-04-01T12:57:26;11.80;99.90
26342;DHT22;14054;50.108;8.640;2023-04-01T13:00:11;11.80;99.90
26342;DHT22;14054;50.108;8.640;2023-04-01T13:10:27;12.00;99.90
26342;DHT22;14054;50.108;8.640;2023-04-01T13:18:20;12.40;99.90
26342;DHT22;14054;50.108;8.640;2023-04-01T13:21:08;12.70;99.90
26342;DHT22;14054;50.108;8.640;2023-04-01T13:26:05;13.10;99.90
26342;DHT22;14054;50.108;8.640;2023-04-01T13:28:47;13.30;99.90
26342;DHT22;14054;50.108;8.640;2023-04-01T13:31:26;13.30;99.90
26342;DHT22;14054;50.108;8.640;2023-04-01T13:36:56;13.20;99.90
26342;DHT22;14054;50.108;8.640;2023-04-01T13:39:30;13.40;99.90
26342;DHT22;14054;50.108;8.640;2023-04-01T13:42:11;13.80;99.90
26342;DHT22;14054;50.108;8.640;2023-04-01T13:44:40;14.20;99.90
26342;DHT22;14054;50.108;8.640;2023-04-01T13:49:45;15.10;99.90
26342;DHT22;14054;50.108;8.640;2023-04-01T13:55:20;16.10;99.90
26342;DHT22;14054;50.108;8.640;2023-04-01T14:05:29;13.80;99.90
26342;DHT22;14054;50.108;8.640;2023-04-01T14:13:12;12.80;99.90
26342;DHT22;14054;50.108;8.640;2023-04-01T14:18:22;12.80;99.90
26342;DHT22;14054;50.108;8.640;2023-04-01T14:23:37;12.60;99.90
26342;DHT22;14054;50.108;8.640;2023-04-01T14:26:09;12.40;99.90
26342;DHT22;14054;50.108;8.640;2023-04-01T14:34:09;12.00;99.90
26342;DHT22;14054;50.108;8.640;2023-04-01T14:39:28;12.00;99.90
26342;DHT22;14054;50.108;8.640;2023-04-01T14:42:07;12.00;99.90
26342;DHT22;14054;50.108;8.640;2023-04-01T14:44:51;12.00;99.90
26342;DHT22;14054;50.108;8.640;2023-04-01T14:50:02;12.10;99.90
26342;DHT22;14054;50.108;8.640;2023-04-01T14:52:31;12.30;99.90
26342;DHT22;14054;50.108;8.640;2023-04-01T14:54:59;12.40;99.90
26342;DHT22;14054;50.108;8.640;2023-04-01T14:57:27;12.40;99.90
26342;DHT22;14054;50.108;8.640;2023-04-01T15:00:00;12.30;99.90
26342;DHT22;14054;50.108;8.640;2023-04-01T15:08:02;12.50;99.90
26342;DHT22;14054;50.108;8.640;2023-04-01T15:15:45;12.40;99.90
26342;DHT22;14054;50.108;8.640;2023-04-01T15:18:15;12.30;99.90
26342;DHT22;14054;50.108;8.640;2023-04-01T15:21:06;12.20;99.90
26342;DHT22;14054;50.108;8.640;2023-04-01T15:23:45;12.30;99.90
26342;DHT22;14054;50.108;8.640;2023-04-01T15:29:56;12.30;99.90
26342;DHT22;14054;50.108;8.640;2023-04-01T15:31:52;12.30;99.90
26342;DHT22;14054;50.108;8.640;2023-04-01T15:39:54;12.30;99.90
26342;DHT22;14054;50.108;8.640;2023-04-01T15:45:14;12.40;99.90
26342;DHT22;14054;50.108;8.640;2023-04-01T15:47:42;12.40;99.90
26342;DHT22;14054;50.108;8.640;2023-04-01T15:50:24;12.40;99.90
26342;DHT22;14054;50.108;8.640;2023-04-01T15:55:37;12.20;99.90
26342;DHT22;14054;50.108;8.640;2023-04-01T15:58:19;12.20;99.90
26342;DHT22;14054;50.108;8.640;2023-04-01T16:00:49;12.10;99.90
26342;DHT22;14054;50.108;8.640;2023-04-01T16:03:37;12.10;99.90
26342;DHT22;14054;50.108;8.640;2023-04-01T16:06:10;12.40;99.90
26342;DHT22;14054;50.108;8.640;2023-04-01T16:11:10;12.50;99.90
26342;DHT22;14054;50.108;8.640;2023-04-01T16:13:42;12.40;99.90
26342;DHT22;14054;50.108;8.640;2023-04-01T16:16:23;12.40;99.90
26342;DHT22;14054;50.108;8.640;2023-04-01T16:21:44;12.30;99.90
26342;DHT22;14054;50.108;8.640;2023-04-01T16:24:24;12.30;99.90
26342;DHT22;14054;50.108;8.640;2023-04-01T16:27:05;12.30;99.90
26342;DHT22;14054;50.108;8.640;2023-04-01T16:34:34;12.20;99.90
26342;DHT22;14054;50.108;8.640;2023-04-01T16:37:10;12.20;99.90
26342;DHT22;14054;50.108;8.640;2023-04-01T16:42:13;12.10;99.90
26342;DHT22;14054;50.108;8.640;2023-04-01T16:44:54;12.10;99.90
26342;DHT22;14054;50.108;8.640;2023-04-01T16:47:32;12.00;99.90
26342;DHT22;14054;50.108;8.640;2023-04-01T16:52:57;11.90;99.90
26342;DHT22;14054;50.108;8.640;2023-04-01T16:55:33;11.90;99.90
26342;DHT22;14054;50.108;8.640;2023-04-01T16:58:00;12.10;99.90
26342;DHT22;14054;50.108;8.640;2023-04-01T17:05:20;11.90;99.90
26342;DHT22;14054;50.108;8.640;2023-04-01T17:10:56;11.90;99.90
26342;DHT22;14054;50.108;8.640;2023-04-01T17:13:28;11.80;99.90
26342;DHT22;14054;50.108;8.640;2023-04-01T17:29:07;11.50;99.90
26342;DHT22;14054;50.108;8.640;2023-04-01T17:31:46;11.50;99.90
26342;DHT22;14054;50.108;8.640;2023-04-01T17:42:42;11.30;99.90
26342;DHT22;14054;50.108;8.640;2023-04-01T17:45:21;11.30;99.90
26342;DHT22;14054;50.108;8.640;2023-04-01T17:50:36;11.30;99.90
26342;DHT22;14054;50.108;8.640;2023-04-01T17:53:13;11.20;99.90
26342;DHT22;14054;50.108;8.640;2023-04-01T17:58:14;11.10;99.90
26342;DHT22;14054;50.108;8.640;2023-04-01T18:00:55;11.10;99.90
26342;DHT22;14054;50.108;8.640;2023-04-01T18:06:10;11.10;99.90
26342;DHT22;14054;50.108;8.640;2023-04-01T18:08:58;11.10;99.90
26342;DHT22;14054;50.108;8.640;2023-04-01T18:14:25;11.00;99.90
26342;DHT22;14054;50.108;8.640;2023-04-01T18:24:58;10.90;99.90
26342;DHT22;14054;50.108;8.640;2023-04-01T18:27:38;10.80;99.90
26342;DHT22;14054;50.108;8.640;2023-04-01T18:30:13;10.80;99.90
26342;DHT22;14054;50.108;8.640;2023-04-01T18:38:00;10.70;99.90
26342;DHT22;14054;50.108;8.640;2023-04-01T18:40:34;10.70;99.90
26342;DHT22;14054;50.108;8.640;2023-04-01T18:43:09;10.70;99.90
26342;DHT22;14054;50.108;8.640;2023-04-01T18:45:37;10.70;99.90
26342;DHT22;14054;50.108;8.640;2023-04-01T18:55:47;10.80;99.90
26342;DHT22;14054;50.108;8.640;2023-04-01T19:01:14;10.80;99.90
26342;DHT22;14054;50.108;8.640;2023-04-01T19:03:43;10.80;99.90
26342;DHT22;14054;50.108;8.640;2023-04-01T19:08:44;10.70;99.90
26342;DHT22;14054;50.108;8.640;2023-04-01T19:13:45;10.70;99.90
26342;DHT22;14054;50.108;8.640;2023-04-01T19:16:21;10.70;99.90
26342;DHT22;14054;50.108;8.640;2023-04-01T19:18:57;10.70;99.90
26342;DHT22;14054;50.108;8.640;2023-04-01T19:21:28;10.70;99.90
26342;DHT22;14054;50.108;8.640;2023-04-01T19:29:16;10.70;99.90
26342;DHT22;14054;50.108;8.640;2023-04-01T19:31:50;10.70;99.90
26342;DHT22;14054;50.108;8.640;2023-04-01T19:39:22;10.70;99.90
26342;DHT22;14054;50.108;8.640;2023-04-01T19:47:03;10.70;99.90
26342;DHT22;14054;50.108;8.640;2023-04-01T19:49:36;10.70;99.90
26342;DHT22;14054;50.108;8.640;2023-04-01T19:52:11;10.60;99.90
26342;DHT22;14054;50.108;8.640;2023-04-01T19:57:20;10.60;99.90
26342;DHT22;14054;50.108;8.640;2023-04-01T20:04:56;10.50;99.90
26342;DHT22;14054;50.108;8.640;2023-04-01T20:07:27;10.40;99.90
26342;DHT22;14054;50.108;8.640;2023-04-01T20:10:05;10.40;99.90
26342;DHT22;14054;50.108;8.640;2023-04-01T20:12:47;10.40;99.90
26342;DHT22;14054;50.108;8.640;2023-04-01T20:15:26;10.30;99.90
26342;DHT22;14054;50.108;8.640;2023-04-01T20:17:53;10.30;99.90
26342;DHT22;14054;50.108;8.640;2023-04-01T20:20:20;10.30;99.90
26342;DHT22;14054;50.108;8.640;2023-04-01T20:25:22;10.20;99.90
26342;DHT22;14054;50.108;8.640;2023-04-01T20:27:50;10.10;99.90
26342;DHT22;14054;50.108;8.640;2023-04-01T20:40:52;10.10;99.90
26342;DHT22;14054;50.108;8.640;2023-04-01T20:43:22;10.10;99.90
26342;DHT22;14054;50.108;8.640;2023-04-01T20:51:06;10.10;99.90
26342;DHT22;14054;50.108;8.640;2023-04-01T21:01:25;10.20;99.90
26342;DHT22;14054;50.108;8.640;2023-04-01T21:03:57;10.20;99.90
26342;DHT22;14054;50.108;8.640;2023-04-01T21:06:35;10.20;99.90
26342;DHT22;14054;50.108;8.640;2023-04-01T21:09:11;10.20;99.90
26342;DHT22;14054;50.108;8.640;2023-04-01T21:12:05;10.10;99.90
26342;DHT22;14054;50.108;8.640;2023-04-01T21:14:42;10.10;99.90
26342;DHT22;14054;50.108;8.640;2023-04-01T21:22:55;10.10;99.90
26342;DHT22;14054;50.108;8.640;2023-04-01T21:25:30;10.10;99.90
26342;DHT22;14054;50.108;8.640;2023-04-01T21:33:30;10.10;99.90
26342;DHT22;14054;50.108;8.640;2023-04-01T21:36:17;10.10;99.90
26342;DHT22;14054;50.108;8.640;2023-04-01T21:38:52;10.10;99.90
26342;DHT22;14054;50.108;8.640;2023-04-01T21:41:23;10.10;99.90
26342;DHT22;14054;50.108;8.640;2023-04-01T21:52:03;10.00;99.90
26342;DHT22;14054;50.108;8.640;2023-04-01T21:59:33;10.10;99.90
26342;DHT22;14054;50.108;8.640;2023-04-01T22:02:31;10.10;99.90
26342;DHT22;14054;50.108;8.640;2023-04-01T22:04:56;10.10;99.90
26342;DHT22;14054;50.108;8.640;2023-04-01T22:07:34;10.10;99.90
26342;DHT22;14054;50.108;8.640;2023-04-01T22:10:10;10.10;99.90
26342;DHT22;14054;50.108;8.640;2023-04-01T22:12:51;10.00;99.90
26342;DHT22;14054;50.108;8.640;2023-04-01T22:15:40;10.00;99.90
26342;DHT22;14054;50.108;8.640;2023-04-01T22:18:19;10.00;99.90
26342;DHT22;14054;50.108;8.640;2023-04-01T22:20:50;10.00;99.90
26342;DHT22;14054;50.108;8.640;2023-04-01T22:23:26;10.00;99.90
26342;DHT22;14054;50.108;8.640;2023-04-01T22:28:36;10.00;99.90
26342;DHT22;14054;50.108;8.640;2023-04-01T22:31:03;10.00;99.90
26342;DHT22;14054;50.108;8.640;2023-04-01T22:36:20;9.90;99.90
26342;DHT22;14054;50.108;8.640;2023-04-01T22:38:52;9.90;99.90
26342;DHT22;14054;50.108;8.640;2023-04-01T22:43:57;9.90;99.90
26342;DHT22;14054;50.108;8.640;2023-04-01T22:46:44;9.90;99.90
26342;DHT22;14054;50.108;8.640;2023-04-01T22:49:17;9.90;99.90
26342;DHT22;14054;50.108;8.640;2023-04-01T22:51:50;9.90;99.90
26342;DHT22;14054;50.108;8.640;2023-04-01T22:54:23;9.90;99.90
26342;DHT22;14054;50.108;8.640;2023-04-01T22:56:53;10.00;99.90
26342;DHT22;14054;50.108;8.640;2023-04-01T22:59:42;9.90;99.90
26342;DHT22;14054;50.108;8.640;2023-04-01T23:02:23;9.90;99.90